Time;durP1;ratioP1;P1;durP2;ratioP2;P2;SDS_P1;SDS_P2;PMS_P1;PMS_P2;Temp;Humidity;BMP_temperature;BMP_pressure;BME280_temperature;BME280_humidity;BME280_pressure;Samples;Min_cycle;Max_cycle;Signal;HPM_P1;HPM_P2
2024/02/04 00:01:27;;;;;;;1.83;0.90;;;5.80;95.20;;;;;;5027819;28;20052;-71
2024/02/04 00:03:52;;;;;;;2.42;0.80;;;5.80;95.40;;;;;;5023628;28;20629;-69
2024/02/04 00:06:18;;;;;;;1.38;0.50;;;5.90;95.30;;;;;;5025819;28;20098;-69
2024/02/04 00:08:43;;;;;;;2.22;1.02;;;5.80;95.10;;;;;;5025516;28;20049;-69
2024/02/04 00:11:11;;;;;;;1.42;0.60;;;5.90;94.90;;;;;;5031499;28;20159;-69
2024/02/04 00:13:37;;;;;;;2.03;0.50;;;5.90;94.70;;;;;;5030400;28;20044;-69
2024/02/04 00:16:03;;;;;;;0.85;0.73;;;5.80;94.60;;;;;;5008468;28;20099;-69
2024/02/04 00:18:29;;;;;;;1.63;1.23;;;5.80;94.70;;;;;;5023030;28;20064;-69
2024/02/04 00:20:54;;;;;;;1.13;0.57;;;5.80;94.70;;;;;;5032571;28;20188;-69
2024/02/04 00:23:19;;;;;;;4.05;0.82;;;5.80;94.50;;;;;;5022837;28;20037;-69
2024/02/04 00:25:45;;;;;;;3.63;1.63;;;5.80;94.40;;;;;;5018611;28;20029;-69
2024/02/04 00:28:11;;;;;;;3.85;1.35;;;5.70;94.60;;;;;;5022357;28;20033;-69
2024/02/04 00:30:37;;;;;;;2.15;0.70;;;5.60;94.60;;;;;;5033014;28;20033;-69
2024/02/04 00:33:04;;;;;;;3.13;0.85;;;5.70;94.50;;;;;;5023439;28;20070;-69
2024/02/04 00:35:29;;;;;;;1.75;0.80;;;5.60;94.40;;;;;;5029642;28;20112;-69
2024/02/04 00:37:55;;;;;;;5.97;0.47;;;5.60;94.50;;;;;;5024838;28;20183;-69
2024/02/04 00:40:21;;;;;;;3.58;0.60;;;5.60;94.70;;;;;;5021954;28;20042;-69
2024/02/04 00:42:46;;;;;;;1.63;0.68;;;5.50;94.60;;;;;;5022885;28;20025;-69
2024/02/04 00:45:12;;;;;;;1.67;0.82;;;5.50;94.60;;;;;;5024726;28;20446;-69
2024/02/04 00:47:37;;;;;;;4.50;0.65;;;5.50;94.30;;;;;;5016556;28;20115;-69
2024/02/04 00:50:03;;;;;;;1.13;0.93;;;5.50;94.40;;;;;;5021954;28;20025;-70
2024/02/04 00:52:28;;;;;;;2.03;0.55;;;5.60;94.30;;;;;;5023279;28;20344;-69
2024/02/04 00:54:54;;;;;;;1.67;0.80;;;5.50;94.50;;;;;;5024184;28;20043;-69
2024/02/04 00:57:19;;;;;;;2.90;1.67;;;5.40;94.50;;;;;;5029153;28;20070;-69
2024/02/04 00:59:45;;;;;;;3.92;1.27;;;5.40;94.50;;;;;;5012520;28;20045;-69
2024/02/04 01:02:10;;;;;;;1.83;0.75;;;5.50;94.40;;;;;;5021021;28;20044;-69
2024/02/04 01:04:36;;;;;;;5.82;0.98;;;5.60;94.10;;;;;;5022184;28;20109;-68
2024/02/04 01:07:01;;;;;;;1.30;0.50;;;5.60;93.80;;;;;;5021385;28;20139;-70
2024/02/04 01:09:28;;;;;;;2.97;0.70;;;5.70;94.10;;;;;;5022435;28;20086;-69
2024/02/04 01:11:53;;;;;;;1.45;0.85;;;5.70;93.80;;;;;;5031906;28;20057;-69
2024/02/04 01:14:19;;;;;;;2.13;0.75;;;5.70;94.10;;;;;;5022166;28;20428;-69
2024/02/04 01:16:44;;;;;;;1.60;0.60;;;5.70;94.10;;;;;;5024335;28;20057;-69
2024/02/04 01:19:10;;;;;;;5.50;1.27;;;5.80;94.20;;;;;;5021500;28;20431;-69
2024/02/04 01:21:35;;;;;;;0.40;0.40;;;5.90;93.80;;;;;;5025628;28;20057;-69
2024/02/04 01:24:01;;;;;;;2.25;0.77;;;5.80;94.20;;;;;;5022779;28;20041;-69
2024/02/04 01:26:26;;;;;;;2.10;0.70;;;5.80;94.00;;;;;;5016638;28;20048;-69
2024/02/04 01:28:52;;;;;;;1.83;0.90;;;5.90;93.60;;;;;;5025432;28;20033;-69
2024/02/04 01:31:17;;;;;;;2.25;1.20;;;5.90;93.70;;;;;;5024753;28;20030;-69
2024/02/04 01:33:42;;;;;;;1.23;0.60;;;5.90;93.50;;;;;;5014145;28;20054;-69
2024/02/04 01:36:08;;;;;;;0.80;0.43;;;5.80;94.00;;;;;;5024012;28;20184;-69
2024/02/04 01:38:33;;;;;;;4.32;0.93;;;5.90;94.00;;;;;;5022293;28;20056;-69
2024/02/04 01:40:59;;;;;;;3.67;1.27;;;5.90;94.20;;;;;;5013284;28;20128;-69
2024/02/04 01:43:25;;;;;;;1.25;0.68;;;6.00;94.00;;;;;;5017183;28;20143;-69
2024/02/04 01:45:53;;;;;;;1.60;0.65;;;5.90;94.20;;;;;;5014148;28;20096;-68
2024/02/04 01:48:21;;;;;;;1.25;0.47;;;6.00;94.10;;;;;;5026494;28;20033;-69
2024/02/04 01:50:48;;;;;;;1.33;0.88;;;6.00;94.10;;;;;;5024175;28;20041;-69
2024/02/04 01:53:15;;;;;;;4.68;0.70;;;6.00;94.10;;;;;;5024698;28;20079;-68
2024/02/04 01:55:41;;;;;;;1.95;1.00;;;6.10;94.10;;;;;;5025854;28;20072;-69
2024/02/04 01:58:06;;;;;;;1.98;0.80;;;6.10;94.20;;;;;;5028853;28;20064;-68
2024/02/04 02:00:32;;;;;;;2.05;0.70;;;6.10;94.10;;;;;;5019092;28;20037;-69
2024/02/04 02:02:59;;;;;;;3.92;0.75;;;6.20;93.80;;;;;;5026928;28;20027;-69
2024/02/04 02:05:26;;;;;;;1.38;0.60;;;6.10;93.80;;;;;;5033192;28;20430;-69
2024/02/04 02:07:51;;;;;;;2.17;0.50;;;6.10;93.80;;;;;;5030607;28;20458;-69
2024/02/04 02:10:19;;;;;;;2.05;0.70;;;6.20;93.70;;;;;;5022730;28;20041;-69
2024/02/04 02:12:56;;;;;;;2.95;1.20;;;6.10;93.70;;;;;;5029412;28;20454;-69
2024/02/04 02:15:25;;;;;;;2.50;0.98;;;6.10;93.90;;;;;;5020847;28;20554;-69
2024/02/04 02:18:05;;;;;;;3.20;1.63;;;6.20;93.70;;;;;;5031647;28;20033;-70
2024/02/04 02:21:07;;;;;;;1.70;0.60;;;6.30;93.40;;;;;;5025773;28;20134;-70
2024/02/04 02:23:56;;;;;;;3.17;0.88;;;6.30;93.30;;;;;;5019445;28;20045;-69
2024/02/04 02:26:23;;;;;;;1.27;0.90;;;6.30;93.40;;;;;;5022809;28;20364;-69
2024/02/04 02:28:48;;;;;;;5.35;1.20;;;6.30;93.60;;;;;;5028713;28;20096;-69
2024/02/04 02:31:14;;;;;;;1.25;0.73;;;6.30;93.70;;;;;;5025615;28;20063;-71
2024/02/04 02:33:39;;;;;;;2.13;0.95;;;6.30;93.80;;;;;;5031455;28;20522;-69
2024/02/04 02:36:17;;;;;;;2.70;1.00;;;6.30;93.70;;;;;;5027931;28;20100;-69
2024/02/04 02:39:36;;;;;;;2.30;1.45;;;6.30;93.80;;;;;;5027890;28;20041;-68
2024/02/04 02:42:04;;;;;;;2.60;0.70;;;6.20;94.10;;;;;;4985101;28;20030;-68
2024/02/04 02:44:31;;;;;;;3.67;1.10;;;6.20;94.00;;;;;;4979414;28;20045;-68
2024/02/04 02:46:58;;;;;;;2.38;0.90;;;6.10;94.00;;;;;;5007558;28;20393;-68
2024/02/04 02:49:24;;;;;;;2.67;1.15;;;6.10;94.20;;;;;;5027510;28;20124;-68
2024/02/04 02:51:49;;;;;;;3.45;1.13;;;6.00;94.40;;;;;;5033112;28;20105;-68
2024/02/04 02:54:15;;;;;;;2.55;1.27;;;5.90;94.60;;;;;;5027171;28;20033;-68
2024/02/04 02:56:40;;;;;;;3.28;1.08;;;5.80;94.90;;;;;;5029926;28;20065;-69
2024/02/04 02:59:06;;;;;;;2.90;1.02;;;5.90;94.90;;;;;;5024427;28;20041;-68
2024/02/04 03:01:31;;;;;;;3.13;1.42;;;5.90;95.10;;;;;;5023199;28;20037;-69
2024/02/04 03:03:57;;;;;;;2.92;1.15;;;5.80;95.20;;;;;;5017789;28;20049;-69
2024/02/04 03:06:22;;;;;;;4.05;1.00;;;5.80;95.60;;;;;;5022786;28;20132;-69
2024/02/04 03:08:48;;;;;;;1.77;0.82;;;5.80;95.60;;;;;;5028297;28;20060;-69
2024/02/04 03:11:13;;;;;;;3.53;1.48;;;5.90;95.50;;;;;;5028176;28;20075;-69
2024/02/04 03:13:39;;;;;;;1.55;1.17;;;5.90;95.60;;;;;;5026295;28;20466;-69
2024/02/04 03:16:11;;;;;;;3.03;1.38;;;6.00;95.50;;;;;;5025865;28;20168;-69
2024/02/04 03:18:42;;;;;;;3.45;1.10;;;5.80;95.60;;;;;;5021919;28;20049;-69
2024/02/04 03:21:15;;;;;;;2.15;1.05;;;5.80;96.00;;;;;;5021134;28;20034;-69
2024/02/04 03:23:42;;;;;;;3.35;1.60;;;5.70;96.10;;;;;;5020664;28;20349;-69
2024/02/04 03:26:08;;;;;;;2.47;1.40;;;5.70;96.50;;;;;;5019766;28;20052;-69
2024/02/04 03:28:33;;;;;;;4.68;1.17;;;5.60;96.20;;;;;;5030128;28;20057;-69
2024/02/04 03:30:59;;;;;;;1.73;1.00;;;5.60;96.40;;;;;;5022100;28;20438;-69
2024/02/04 03:33:24;;;;;;;3.70;1.90;;;5.50;96.50;;;;;;5028956;28;20037;-69
2024/02/04 03:35:49;;;;;;;4.07;1.95;;;5.50;96.90;;;;;;4998090;28;20044;-69
2024/02/04 03:38:15;;;;;;;2.50;1.38;;;5.40;96.80;;;;;;5023598;28;20102;-69
2024/02/04 03:40:42;;;;;;;5.40;1.70;;;5.50;97.10;;;;;;5025584;28;20037;-69
2024/02/04 03:43:08;;;;;;;2.60;1.58;;;5.40;96.90;;;;;;5027331;28;20018;-69
2024/02/04 03:45:35;;;;;;;5.03;2.22;;;5.40;97.30;;;;;;5022626;28;20447;-69
2024/02/04 03:48:01;;;;;;;4.93;1.88;;;5.30;97.40;;;;;;5023876;28;20029;-69
2024/02/04 03:50:26;;;;;;;2.53;1.80;;;5.30;97.50;;;;;;5024431;28;20367;-69
2024/02/04 03:52:53;;;;;;;4.32;2.22;;;5.30;97.50;;;;;;5022963;28;20049;-68
2024/02/04 03:55:18;;;;;;;3.60;1.77;;;5.30;98.00;;;;;;5033213;28;20441;-69
2024/02/04 03:57:44;;;;;;;3.88;1.35;;;5.30;97.90;;;;;;5023308;28;20029;-69
2024/02/04 04:00:10;;;;;;;3.70;1.83;;;5.30;98.20;;;;;;5029798;28;20041;-69
2024/02/04 04:02:35;;;;;;;4.28;2.00;;;5.30;98.20;;;;;;5025579;28;20084;-69
2024/02/04 04:05:01;;;;;;;5.15;1.55;;;5.30;98.30;;;;;;5029868;28;20059;-68
2024/02/04 04:07:26;;;;;;;4.30;1.95;;;5.30;98.20;;;;;;5006548;28;20026;-69
2024/02/04 04:09:52;;;;;;;5.38;1.98;;;5.30;98.30;;;;;;5022211;28;21246;-69
2024/02/04 04:12:17;;;;;;;3.97;2.42;;;5.20;98.50;;;;;;5027198;28;20460;-69
2024/02/04 04:14:43;;;;;;;5.75;2.55;;;5.20;98.50;;;;;;5026737;28;20125;-68
2024/02/04 04:17:08;;;;;;;4.30;1.67;;;5.20;98.70;;;;;;5025730;28;20069;-69
2024/02/04 04:19:35;;;;;;;3.75;1.95;;;5.20;98.70;;;;;;5023476;28;20030;-69
2024/02/04 04:22:01;;;;;;;3.28;2.03;;;5.20;98.80;;;;;;5022519;28;20033;-69
2024/02/04 04:24:27;;;;;;;3.05;1.83;;;5.20;98.90;;;;;;5013331;28;20060;-69
2024/02/04 04:26:52;;;;;;;4.45;2.38;;;5.10;98.90;;;;;;5016491;28;20034;-68
2024/02/04 04:29:18;;;;;;;4.47;2.50;;;5.10;99.10;;;;;;5014609;28;20452;-69
2024/02/04 04:31:44;;;;;;;4.07;2.58;;;5.10;99.10;;;;;;5022187;28;20115;-68
2024/02/04 04:34:09;;;;;;;4.78;1.90;;;5.00;99.20;;;;;;5026600;28;20045;-69
2024/02/04 04:36:35;;;;;;;5.60;2.30;;;5.10;99.30;;;;;;5014938;28;20033;-69
2024/02/04 04:39:01;;;;;;;5.72;2.13;;;5.10;99.20;;;;;;5025815;28;20033;-69
2024/02/04 04:41:26;;;;;;;4.50;2.20;;;5.10;99.10;;;;;;5020885;28;20033;-69
2024/02/04 04:43:52;;;;;;;9.73;2.35;;;5.10;99.10;;;;;;5017958;28;20109;-69
2024/02/04 04:46:17;;;;;;;4.45;2.20;;;5.10;99.00;;;;;;5022036;28;20029;-69
2024/02/04 04:48:43;;;;;;;3.47;1.58;;;5.00;99.10;;;;;;5010962;28;20133;-69
2024/02/04 04:51:09;;;;;;;4.53;2.13;;;5.10;99.10;;;;;;5027246;28;20029;-70
2024/02/04 04:53:34;;;;;;;7.00;2.35;;;5.10;99.00;;;;;;5027298;28;20086;-70
2024/02/04 04:56:00;;;;;;;3.40;1.83;;;5.00;99.00;;;;;;5017466;28;20077;-70
2024/02/04 04:58:25;;;;;;;3.10;1.60;;;5.00;98.90;;;;;;5021391;28;20104;-70
2024/02/04 05:00:51;;;;;;;6.13;1.98;;;5.00;98.80;;;;;;5018641;28;20076;-70
2024/02/04 05:03:16;;;;;;;3.35;1.55;;;5.10;98.70;;;;;;5024239;28;20067;-70
2024/02/04 05:05:42;;;;;;;3.58;1.40;;;5.00;98.70;;;;;;5024747;28;20025;-70
2024/02/04 05:08:07;;;;;;;4.25;1.92;;;5.10;98.50;;;;;;5026455;28;20036;-70
2024/02/04 05:10:33;;;;;;;5.20;1.83;;;5.10;98.30;;;;;;5026713;28;20044;-70
2024/02/04 05:12:58;;;;;;;3.28;1.70;;;5.10;98.30;;;;;;5020128;28;20092;-70
2024/02/04 05:15:25;;;;;;;4.53;1.63;;;5.10;98.10;;;;;;5025958;28;20096;-69
2024/02/04 05:17:50;;;;;;;4.70;1.30;;;5.10;98.10;;;;;;5022472;28;20033;-69
2024/02/04 05:20:16;;;;;;;4.88;1.10;;;5.00;98.10;;;;;;5020043;28;20037;-69
2024/02/04 05:22:41;;;;;;;3.70;1.55;;;5.00;98.30;;;;;;5007072;28;20030;-69
2024/02/04 05:25:08;;;;;;;4.55;1.80;;;5.10;98.10;;;;;;5023319;28;20044;-70
2024/02/04 05:27:35;;;;;;;5.72;1.15;;;5.10;97.90;;;;;;5027750;28;20057;-69
2024/02/04 05:30:02;;;;;;;4.95;1.73;;;5.10;97.70;;;;;;5029449;28;20060;-69
2024/02/04 05:32:27;;;;;;;1.52;0.88;;;5.10;97.70;;;;;;5026954;28;20099;-69
2024/02/04 05:34:53;;;;;;;0.88;0.60;;;5.20;97.40;;;;;;5026757;28;20375;-69
2024/02/04 05:37:19;;;;;;;1.85;1.00;;;5.10;97.40;;;;;;5030090;28;20049;-69
2024/02/04 05:39:44;;;;;;;3.33;1.02;;;5.10;97.40;;;;;;5027288;28;20041;-69
2024/02/04 05:42:10;;;;;;;3.90;1.35;;;5.10;97.30;;;;;;5038105;28;20094;-69
2024/02/04 05:44:35;;;;;;;4.32;0.88;;;5.10;97.30;;;;;;5029416;28;20045;-69
2024/02/04 05:47:01;;;;;;;5.20;1.42;;;5.10;97.40;;;;;;5020368;28;20091;-69
2024/02/04 05:49:27;;;;;;;3.78;1.30;;;5.00;97.30;;;;;;5031595;28;20021;-70
2024/02/04 05:51:52;;;;;;;5.30;1.25;;;5.10;97.40;;;;;;5023235;28;20060;-68
2024/02/04 05:54:18;;;;;;;1.60;0.85;;;5.10;97.20;;;;;;5013671;28;20040;-68
2024/02/04 05:56:43;;;;;;;1.60;0.80;;;5.10;97.00;;;;;;5025748;28;20060;-68
2024/02/04 05:59:09;;;;;;;1.73;0.90;;;5.10;96.90;;;;;;5031262;28;20037;-68
2024/02/04 06:01:34;;;;;;;2.03;1.40;;;5.10;96.90;;;;;;5026707;28;20040;-68
2024/02/04 06:03:59;;;;;;;3.85;0.82;;;5.10;96.70;;;;;;5029662;28;20021;-67
2024/02/04 06:06:25;;;;;;;2.30;0.85;;;5.10;96.50;;;;;;5035222;28;20045;-68
2024/02/04 06:08:51;;;;;;;2.72;0.70;;;5.20;96.40;;;;;;5028328;28;20108;-68
2024/02/04 06:11:16;;;;;;;0.75;0.75;;;5.20;96.00;;;;;;5030552;28;20025;-69
2024/02/04 06:13:44;;;;;;;0.80;0.70;;;5.30;96.00;;;;;;5013587;28;20033;-68
2024/02/04 06:16:11;;;;;;;2.17;0.70;;;5.30;95.90;;;;;;5028706;28;20072;-69
2024/02/04 06:18:37;;;;;;;1.65;0.70;;;5.30;95.80;;;;;;5030608;28;20022;-68
2024/02/04 06:21:04;;;;;;;2.40;0.77;;;5.20;95.80;;;;;;5029468;28;20045;-68
2024/02/04 06:23:29;;;;;;;0.68;0.68;;;5.20;95.70;;;;;;5028289;28;20428;-69
2024/02/04 06:25:55;;;;;;;0.93;0.60;;;5.20;95.90;;;;;;5026442;28;20075;-68
2024/02/04 06:28:20;;;;;;;2.42;0.73;;;5.20;95.80;;;;;;5032430;28;20033;-68
2024/02/04 06:30:46;;;;;;;2.50;0.60;;;5.10;95.90;;;;;;5030283;28;20085;-68
2024/02/04 06:33:11;;;;;;;0.80;0.80;;;5.20;95.80;;;;;;5033138;28;20108;-67
2024/02/04 06:35:36;;;;;;;1.08;0.77;;;5.20;95.70;;;;;;5029802;28;20095;-67
2024/02/04 06:38:02;;;;;;;1.50;0.68;;;5.30;95.40;;;;;;5035685;28;20427;-67
2024/02/04 06:40:27;;;;;;;2.85;0.80;;;5.20;95.60;;;;;;5025696;28;20037;-67
2024/02/04 06:42:53;;;;;;;4.35;1.30;;;5.20;95.30;;;;;;5029167;28;20088;-66
2024/02/04 06:45:18;;;;;;;1.27;0.68;;;5.20;95.30;;;;;;5027196;28;20376;-68
2024/02/04 06:47:47;;;;;;;3.70;0.57;;;5.20;95.30;;;;;;5027238;28;20087;-67
2024/02/04 06:50:13;;;;;;;1.15;0.70;;;5.20;95.30;;;;;;5010418;28;20037;-67
2024/02/04 06:52:43;;;;;;;2.60;1.33;;;5.20;95.20;;;;;;5030576;28;20018;-68
2024/02/04 06:55:09;;;;;;;3.95;0.68;;;5.10;95.30;;;;;;5027743;28;20038;-67
2024/02/04 06:57:35;;;;;;;2.35;0.82;;;5.20;95.10;;;;;;5025276;28;20190;-66
2024/02/04 07:00:01;;;;;;;2.72;0.70;;;5.20;95.00;;;;;;5025220;28;20037;-67
2024/02/04 07:02:26;;;;;;;3.20;0.52;;;5.30;95.00;;;;;;5021404;28;20034;-67
2024/02/04 07:04:52;;;;;;;4.47;0.70;;;5.30;94.80;;;;;;5028294;28;20029;-66
2024/02/04 07:07:18;;;;;;;5.38;1.10;;;5.30;94.80;;;;;;5024714;28;20515;-68
2024/02/04 07:09:43;;;;;;;0.93;0.77;;;5.30;94.70;;;;;;5031132;28;20168;-67
2024/02/04 07:12:09;;;;;;;6.55;1.17;;;5.30;94.70;;;;;;5028900;28;20042;-67
2024/02/04 07:14:34;;;;;;;1.73;0.45;;;5.30;94.60;;;;;;5024185;28;20120;-67
2024/02/04 07:16:59;;;;;;;1.35;0.57;;;5.20;94.80;;;;;;5022977;28;20038;-66
2024/02/04 07:19:25;;;;;;;3.10;0.90;;;5.30;94.50;;;;;;5021417;28;20416;-68
2024/02/04 07:21:50;;;;;;;0.98;0.60;;;5.30;94.60;;;;;;5027123;28;20193;-67
2024/02/04 07:24:16;;;;;;;2.88;0.80;;;5.30;94.60;;;;;;5028948;28;20072;-67
2024/02/04 07:26:41;;;;;;;1.50;0.75;;;5.30;94.50;;;;;;5024656;28;20065;-66
2024/02/04 07:29:07;;;;;;;0.63;0.55;;;5.40;94.30;;;;;;5027184;28;20048;-66
2024/02/04 07:31:32;;;;;;;4.90;1.70;;;5.40;94.50;;;;;;5028027;28;20159;-67
2024/02/04 07:33:58;;;;;;;0.50;0.38;;;5.40;94.50;;;;;;5029507;28;20030;-67
2024/02/04 07:36:23;;;;;;;2.05;0.80;;;5.40;94.60;;;;;;5034423;28;20041;-66
2024/02/04 07:38:49;;;;;;;0.82;0.50;;;5.40;94.50;;;;;;5024563;28;20449;-67
2024/02/04 07:41:15;;;;;;;2.00;0.68;;;5.40;94.70;;;;;;5030778;28;20044;-66
2024/02/04 07:43:41;;;;;;;2.65;0.95;;;5.40;94.70;;;;;;5025919;28;20017;-67
2024/02/04 07:46:08;;;;;;;1.23;0.82;;;5.50;94.50;;;;;;5036888;28;20410;-66
2024/02/04 07:48:33;;;;;;;1.60;0.68;;;5.40;94.70;;;;;;5021803;28;20033;-67
2024/02/04 07:50:59;;;;;;;1.95;0.65;;;5.50;94.70;;;;;;5026148;28;20360;-67
2024/02/04 07:53:25;;;;;;;2.25;1.00;;;5.50;94.60;;;;;;5028618;28;20112;-67
2024/02/04 07:55:51;;;;;;;1.23;0.68;;;5.50;94.50;;;;;;5025983;28;20033;-66
2024/02/04 07:58:16;;;;;;;1.83;0.98;;;5.50;94.40;;;;;;5022246;28;20045;-66
2024/02/04 08:00:42;;;;;;;1.40;0.80;;;5.50;94.40;;;;;;5021885;28;20129;-66
2024/02/04 08:03:07;;;;;;;2.97;1.10;;;5.60;94.40;;;;;;5023424;28;20483;-66
2024/02/04 08:05:35;;;;;;;4.07;1.50;;;5.60;94.40;;;;;;5022566;28;20116;-66
2024/02/04 08:08:01;;;;;;;3.35;0.73;;;5.60;94.30;;;;;;5027846;28;20021;-66
2024/02/04 08:10:26;;;;;;;3.28;1.30;;;5.60;94.20;;;;;;5028617;28;20082;-65
2024/02/04 08:12:53;;;;;;;1.75;0.77;;;5.70;94.30;;;;;;5030962;28;20030;-66
2024/02/04 08:15:19;;;;;;;2.58;1.27;;;5.70;94.20;;;;;;5024600;28;20333;-66
2024/02/04 08:17:44;;;;;;;1.92;1.00;;;5.70;93.90;;;;;;5024999;28;20167;-65
2024/02/04 08:20:10;;;;;;;1.85;0.80;;;5.80;94.10;;;;;;5025020;28;20025;-65
2024/02/04 08:22:36;;;;;;;1.20;0.90;;;5.80;94.10;;;;;;5022468;28;20026;-66
2024/02/04 08:25:02;;;;;;;2.20;1.27;;;5.80;93.90;;;;;;5020484;28;20207;-66
2024/02/04 08:27:28;;;;;;;1.88;1.02;;;5.90;93.80;;;;;;5023833;28;20117;-66
2024/02/04 08:29:53;;;;;;;2.95;1.60;;;5.90;93.70;;;;;;5022313;28;20026;-66
2024/02/04 08:32:19;;;;;;;8.55;1.50;;;5.90;94.00;;;;;;5024671;28;20044;-66
2024/02/04 08:34:44;;;;;;;2.78;1.17;;;5.90;94.20;;;;;;5020887;28;20069;-67
2024/02/04 08:37:10;;;;;;;5.43;1.17;;;5.90;94.20;;;;;;5026293;28;20090;-66
2024/02/04 08:39:35;;;;;;;6.95;1.35;;;5.90;94.30;;;;;;5028069;28;20128;-68
2024/02/04 08:42:01;;;;;;;1.40;1.17;;;6.00;94.00;;;;;;5021921;28;20026;-66
2024/02/04 08:44:26;;;;;;;3.30;1.90;;;5.90;94.10;;;;;;5027376;28;20383;-67
2024/02/04 08:46:52;;;;;;;1.33;1.00;;;6.00;94.00;;;;;;5021553;28;20064;-66
2024/02/04 08:49:17;;;;;;;3.20;1.40;;;6.00;93.80;;;;;;5026127;28;20063;-65
2024/02/04 08:51:43;;;;;;;2.10;1.20;;;6.00;93.70;;;;;;5015691;28;20029;-66
2024/02/04 08:54:08;;;;;;;3.40;1.10;;;6.10;93.60;;;;;;5026989;28;20467;-66
2024/02/04 08:56:34;;;;;;;3.15;1.52;;;6.10;93.80;;;;;;5025395;28;20159;-67
2024/02/04 08:59:01;;;;;;;2.38;1.23;;;6.00;93.80;;;;;;5027859;28;20109;-66
2024/02/04 09:01:27;;;;;;;2.65;1.10;;;6.00;93.70;;;;;;5026247;28;20423;-65
2024/02/04 09:03:53;;;;;;;2.47;1.17;;;6.10;93.60;;;;;;5024882;28;20061;-66
2024/02/04 09:06:18;;;;;;;1.83;1.17;;;6.10;93.50;;;;;;5034462;28;20127;-66
2024/02/04 09:08:43;;;;;;;1.10;0.80;;;6.10;93.70;;;;;;5031419;28;20045;-66
2024/02/04 09:11:09;;;;;;;7.90;1.25;;;6.10;93.50;;;;;;5039555;28;20128;-66
2024/02/04 09:13:34;;;;;;;4.75;1.60;;;6.10;93.30;;;;;;5016683;28;20037;-66
2024/02/04 09:16:00;;;;;;;2.50;1.30;;;6.20;93.20;;;;;;5024599;28;20058;-65
2024/02/04 09:18:25;;;;;;;1.73;1.05;;;6.20;93.00;;;;;;5036752;28;20105;-67
2024/02/04 09:20:51;;;;;;;2.70;0.85;;;6.20;93.20;;;;;;5021011;28;20119;-65
2024/02/04 09:23:16;;;;;;;7.97;1.70;;;6.20;93.00;;;;;;5028777;28;20444;-66
2024/02/04 09:25:42;;;;;;;1.05;0.90;;;6.30;92.80;;;;;;5022044;28;20126;-66
2024/02/04 09:28:07;;;;;;;2.88;0.85;;;6.40;92.30;;;;;;5030928;28;20051;-66
2024/02/04 09:30:33;;;;;;;2.97;1.17;;;6.40;92.50;;;;;;5033804;28;20052;-66
2024/02/04 09:32:58;;;;;;;3.58;1.40;;;6.50;92.50;;;;;;5023302;28;20030;-67
2024/02/04 09:35:24;;;;;;;3.95;1.20;;;6.50;92.10;;;;;;5031871;28;20065;-66
2024/02/04 09:37:49;;;;;;;2.75;1.58;;;6.50;91.90;;;;;;5028014;28;20057;-67
2024/02/04 09:40:15;;;;;;;2.47;1.15;;;6.60;92.00;;;;;;5014388;28;20026;-68
2024/02/04 09:42:41;;;;;;;2.88;1.08;;;6.60;92.00;;;;;;5028988;28;20130;-70
2024/02/04 09:45:07;;;;;;;1.30;0.88;;;6.60;91.70;;;;;;5028197;28;20464;-68
2024/02/04 09:47:34;;;;;;;0.68;0.50;;;6.60;92.00;;;;;;5021978;28;20048;-68
2024/02/04 09:50:00;;;;;;;2.00;1.20;;;6.60;91.80;;;;;;5013471;28;20392;-68
2024/02/04 09:52:33;;;;;;;3.60;0.95;;;6.60;91.80;;;;;;5026374;28;20085;-68
2024/02/04 09:55:01;;;;;;;2.97;0.98;;;6.60;91.30;;;;;;5026382;28;20321;-68
2024/02/04 09:57:28;;;;;;;3.30;0.95;;;6.70;91.40;;;;;;5030282;28;20037;-68
2024/02/04 09:59:54;;;;;;;1.33;0.90;;;6.70;91.30;;;;;;5029471;28;20068;-68
2024/02/04 10:02:21;;;;;;;1.30;1.00;;;6.70;91.30;;;;;;5032148;28;20484;-69
2024/02/04 10:04:46;;;;;;;1.98;0.88;;;6.70;91.30;;;;;;5025915;28;20070;-67
2024/02/04 10:07:14;;;;;;;3.20;0.65;;;6.70;91.20;;;;;;5031266;28;20036;-66
2024/02/04 10:09:39;;;;;;;5.93;1.10;;;6.70;91.20;;;;;;5027292;28;20025;-67
2024/02/04 10:12:06;;;;;;;3.40;1.05;;;6.70;91.20;;;;;;5019754;28;20337;-66
2024/02/04 10:14:31;;;;;;;3.20;0.80;;;6.70;91.10;;;;;;5020964;28;20049;-67
2024/02/04 10:16:57;;;;;;;3.60;1.05;;;6.70;91.10;;;;;;5019600;28;20087;-66
2024/02/04 10:19:26;;;;;;;2.97;0.98;;;6.60;91.10;;;;;;5019025;28;20109;-67
2024/02/04 10:21:59;;;;;;;2.85;0.90;;;6.70;91.20;;;;;;5026978;28;20025;-66
2024/02/04 10:24:25;;;;;;;3.80;1.20;;;6.70;91.10;;;;;;5024804;28;20184;-66
2024/02/04 10:26:50;;;;;;;1.92;0.80;;;6.70;90.80;;;;;;5028237;28;20033;-66
2024/02/04 10:29:18;;;;;;;2.22;0.98;;;6.70;91.00;;;;;;5030679;28;20066;-67
2024/02/04 10:31:43;;;;;;;2.88;1.05;;;6.60;91.10;;;;;;5023744;28;20025;-66
2024/02/04 10:34:09;;;;;;;1.98;1.00;;;6.70;90.90;;;;;;5024240;28;20117;-66
2024/02/04 10:36:34;;;;;;;1.25;0.75;;;6.70;90.80;;;;;;5028331;28;20436;-66
2024/02/04 10:39:00;;;;;;;2.47;0.82;;;6.70;90.90;;;;;;5029388;28;20032;-66
2024/02/04 10:41:29;;;;;;;4.72;1.05;;;6.80;90.20;;;;;;5009050;28;20029;-67
2024/02/04 10:43:55;;;;;;;2.83;0.90;;;6.80;90.00;;;;;;5027641;28;20033;-66
2024/02/04 10:46:23;;;;;;;4.50;0.82;;;6.90;90.00;;;;;;5022591;28;20032;-66
2024/02/04 10:49:00;;;;;;;3.95;0.93;;;6.90;90.00;;;;;;5026029;28;20021;-68
2024/02/04 10:51:27;;;;;;;4.07;0.95;;;7.00;90.10;;;;;;5023922;28;20034;-68
2024/02/04 10:53:55;;;;;;;0.82;0.65;;;7.00;89.90;;;;;;5023077;28;20379;-67
2024/02/04 10:56:28;;;;;;;1.63;0.98;;;7.10;89.70;;;;;;5026314;28;20045;-68
2024/02/04 10:58:56;;;;;;;0.85;0.65;;;7.20;89.30;;;;;;5018609;28;20105;-66
2024/02/04 11:01:22;;;;;;;2.28;1.00;;;7.30;89.10;;;;;;5018529;28;20094;-67
2024/02/04 11:03:49;;;;;;;3.92;0.82;;;7.30;88.90;;;;;;5019806;28;20215;-66
2024/02/04 11:06:16;;;;;;;2.10;1.08;;;7.30;89.20;;;;;;5012933;28;20125;-66
2024/02/04 11:08:43;;;;;;;4.38;1.05;;;7.30;88.70;;;;;;5022106;28;20109;-66
2024/02/04 11:11:09;;;;;;;1.55;0.82;;;7.30;89.00;;;;;;5009451;28;20120;-66
2024/02/04 11:13:36;;;;;;;3.38;1.30;;;7.30;88.90;;;;;;5014062;28;20546;-66
2024/02/04 11:16:07;;;;;;;4.65;0.82;;;7.20;89.10;;;;;;5021051;28;20373;-67
2024/02/04 11:18:48;;;;;;;1.65;1.02;;;7.30;88.50;;;;;;5015377;28;20140;-66
2024/02/04 11:21:39;;;;;;;0.93;0.60;;;7.30;88.90;;;;;;5025073;28;20383;-66
2024/02/04 11:24:22;;;;;;;1.48;0.80;;;7.30;88.80;;;;;;5020699;28;20067;-66
2024/02/04 11:26:48;;;;;;;1.70;0.88;;;7.30;89.00;;;;;;5021674;28;20041;-66
2024/02/04 11:29:14;;;;;;;2.88;1.00;;;7.30;88.80;;;;;;5027072;28;20116;-69
2024/02/04 11:31:40;;;;;;;5.10;1.15;;;7.30;88.70;;;;;;5003305;28;20160;-68
2024/02/04 11:34:06;;;;;;;2.03;1.05;;;7.30;88.80;;;;;;5020778;28;20037;-69
2024/02/04 11:36:38;;;;;;;2.88;0.98;;;7.30;88.90;;;;;;5019618;28;20030;-66
2024/02/04 11:39:14;;;;;;;2.35;0.98;;;7.40;88.80;;;;;;5024697;28;20037;-65
2024/02/04 11:41:49;;;;;;;5.82;1.20;;;7.50;88.30;;;;;;5019902;28;20048;-66
2024/02/04 11:44:22;;;;;;;4.65;1.35;;;7.50;88.30;;;;;;5021274;28;20040;-65
2024/02/04 11:46:48;;;;;;;4.15;1.00;;;7.60;88.90;;;;;;5023333;28;20092;-66
2024/02/04 11:49:18;;;;;;;2.42;0.98;;;7.60;88.30;;;;;;5018489;28;20157;-66
2024/02/04 11:51:50;;;;;;;2.85;0.82;;;7.60;88.20;;;;;;5025445;28;20085;-66
2024/02/04 11:54:18;;;;;;;3.90;0.93;;;7.60;88.60;;;;;;5020402;28;20114;-68
2024/02/04 11:56:44;;;;;;;1.15;0.73;;;7.50;87.80;;;;;;5024986;28;20121;-68
2024/02/04 11:59:11;;;;;;;2.95;0.88;;;7.50;88.00;;;;;;5020969;28;20144;-68
2024/02/04 12:01:37;;;;;;;4.93;0.95;;;7.50;88.00;;;;;;5023287;28;20083;-67
2024/02/04 12:04:10;;;;;;;3.17;0.90;;;7.50;88.10;;;;;;5019272;28;20052;-68
2024/02/04 12:06:37;;;;;;;4.22;0.68;;;7.60;88.10;;;;;;5022745;28;20025;-68
2024/02/04 12:09:04;;;;;;;1.42;0.60;;;7.60;87.80;;;;;;5009272;28;20075;-68
2024/02/04 12:11:29;;;;;;;3.17;1.08;;;7.60;87.80;;;;;;4999111;28;20071;-68
2024/02/04 12:13:56;;;;;;;3.92;1.48;;;7.60;88.00;;;;;;5026297;28;20471;-69
2024/02/04 12:16:22;;;;;;;2.08;1.02;;;7.60;88.30;;;;;;5029523;28;20112;-69
2024/02/04 12:18:49;;;;;;;1.48;1.02;;;7.60;87.80;;;;;;5025240;28;20037;-68
2024/02/04 12:21:14;;;;;;;5.55;1.25;;;7.60;87.90;;;;;;5022914;28;20044;-69
2024/02/04 12:23:40;;;;;;;2.83;1.08;;;7.60;88.10;;;;;;5022132;28;20030;-68
2024/02/04 12:26:05;;;;;;;1.02;0.60;;;7.70;87.80;;;;;;5021889;28;20097;-67
2024/02/04 12:28:31;;;;;;;2.92;0.95;;;7.80;87.60;;;;;;5013006;28;20066;-67
2024/02/04 12:30:58;;;;;;;3.15;0.77;;;7.80;87.60;;;;;;5014954;28;20053;-67
2024/02/04 12:33:24;;;;;;;2.42;0.80;;;7.80;87.50;;;;;;5011367;28;20053;-67
2024/02/04 12:35:55;;;;;;;3.60;1.00;;;7.80;87.70;;;;;;5015787;28;20788;-67
2024/02/04 12:38:21;;;;;;;1.27;1.13;;;7.80;87.40;;;;;;5022110;28;20033;-67
2024/02/04 12:40:46;;;;;;;1.63;1.10;;;7.80;87.00;;;;;;5025359;28;20037;-67
2024/02/04 12:43:12;;;;;;;3.38;0.82;;;7.80;87.10;;;;;;5027295;28;20109;-68
2024/02/04 12:45:37;;;;;;;2.70;0.77;;;7.80;87.20;;;;;;5023424;28;20037;-68
2024/02/04 12:48:04;;;;;;;1.25;0.68;;;7.70;87.40;;;;;;5019788;28;20052;-67
2024/02/04 12:50:29;;;;;;;0.95;0.57;;;7.80;87.20;;;;;;5019459;28;20494;-69
2024/02/04 12:53:05;;;;;;;3.08;0.77;;;7.70;87.10;;;;;;5016721;28;20049;-69
2024/02/04 12:55:32;;;;;;;2.33;0.95;;;7.70;87.60;;;;;;5019760;28;20033;-69